Currently 56°F in Fallbrook, California, USA
56°F
57°F / 56°F
calm
0.00"
Friday, April 26, 2019 4:59 AM PDT

Fallbrook, California Weather Summary
Last 36 Hours

Temperature Winds Hourly Humidity Dewpoint
Time Report Norm Report Norm Max Gusts Precip. Rpt. Norm Rpt. Norm Pressure
1Fri 04:59 AM  56.3°F  54°F  calm  calm  none  0.00"  100%  91%  56°F  52°F  29.99"
3Fri 04:53 AM  56.3°F  54°F  calm  calm  none  ----  100%  91%  56°F  52°F  29.99"
Fri 04:00 AM  56.6°F  55°F  calm  calm  none  0.00"  100%  91%  57°F  52°F  29.99"
Fri 03:00 AM  56.7°F  55°F  calm  calm  none  0.00"  100%  91%  57°F  52°F  29.99"
Fri 02:00 AM  56.9°F  55°F  calm  calm  none  0.00"  100%  92%  57°F  53°F  30.01"
2Fri 01:16 AM  57.1°F  56°F  calm  calm  none  ----  100%  92%  57°F  53°F  30.01"
Fri 01:00 AM  57.0°F  56°F  calm  calm  none  0.00"  100%  92%  57°F  53°F  30.01"
Fri 12:00 AM  57.0°F  56°F  calm  calm  none  0.00"  100%  91%  57°F  54°F  30.01"
Thu 11:00 PM  56.7°F  57°F  calm  calm  none  0.00"  100%  91%  57°F  54°F  30.00"
Thu 10:00 PM  57.1°F  57°F  calm  calm  none  0.00"  100%  90%  57°F  54°F  30.00"
Thu 09:00 PM  58.4°F  58°F  calm  calm  none  0.00"  98%  88%  58°F  54°F  29.99"
Thu 08:00 PM  60.3°F  59°F  calm  1 mph  4 mph  0.00"  92%  85%  58°F  55°F  29.97"
Thu 07:00 PM  65.7°F  62°F  2 mph SW  3 mph  8 mph  0.00"  78%  76%  58°F  55°F  29.95"
Thu 06:00 PM  70.4°F  66°F  4 mph SW  4 mph  7 mph  0.00"  65%  68%  58°F  55°F  29.95"
Thu 05:00 PM  73.7°F  69°F  2 mph SW  4 mph  8 mph  0.00"  58%  62%  58°F  55°F  29.94"
Thu 04:00 PM  77.3°F  71°F  3 mph S  5 mph  7 mph  0.00"  51%  59%  57°F  55°F  29.94"
Thu 03:00 PM  77.9°F  72°F  4 mph SW  5 mph  8 mph  0.00"  52%  57%  58°F  55°F  29.95"
Thu 02:00 PM  77.2°F  72°F  2 mph S  5 mph  8 mph  0.00"  56%  57%  60°F  55°F  29.97"
Thu 01:00 PM  78.0°F  72°F  3 mph SW  5 mph  7 mph  0.00"  59%  58%  62°F  56°F  29.97"
Thu 12:00 PM  74.6°F  70°F  2 mph S  4 mph  6 mph  0.00"  67%  60%  62°F  55°F  29.98"
Thu 11:00 AM  66.8°F  68°F  2 mph S  3 mph  4 mph  0.00"  89%  66%  63°F  55°F  29.99"
Thu 10:00 AM  59.2°F  64°F  calm  2 mph  2 mph  0.00"  100%  74%  59°F  56°F  30.00"
Thu 09:00 AM  56.7°F  61°F  calm  1 mph  none  0.00"  100%  82%  57°F  55°F  30.00"
Thu 08:00 AM  55.2°F  57°F  calm  1 mph  none  0.00"  100%  88%  55°F  54°F  30.00"
Thu 07:00 AM  55.2°F  55°F  calm  calm  none  0.01"  100%  90%  55°F  52°F  29.99"
Thu 06:00 AM  55.0°F  54°F  calm  calm  none  0.00"  100%  91%  55°F  51°F  29.98"
Thu 05:00 AM  54.7°F  54°F  calm  calm  none  0.00"  100%  91%  55°F  52°F  29.97"
Thu 04:00 AM  54.8°F  54°F  calm  calm  none  0.00"  100%  92%  55°F  52°F  29.98"
Thu 03:00 AM  55.9°F  55°F  calm  calm  none  0.00"  100%  92%  56°F  52°F  29.98"
Thu 02:00 AM  55.4°F  55°F  calm  calm  none  0.00"  100%  92%  55°F  53°F  29.99"
Thu 01:00 AM  56.0°F  56°F  calm  calm  none  0.00"  100%  92%  56°F  53°F  30.00"
Thu 12:00 AM  56.2°F  56°F  calm  calm  none  0.00"  100%  92%  56°F  54°F  30.00"
Wed 11:00 PM  57.1°F  56°F  calm  calm  none  0.00"  100%  91%  57°F  54°F  29.99"
Wed 10:00 PM  58.7°F  57°F  calm  calm  none  0.00"  100%  90%  59°F  54°F  29.98"
Wed 09:00 PM  60.0°F  58°F  calm  calm  none  0.00"  96%  89%  59°F  54°F  29.97"
Wed 08:00 PM  62.2°F  59°F  calm  1 mph  none  0.00"  87%  85%  58°F  55°F  29.96"
Wed 07:00 PM  67.2°F  62°F  calm  2 mph  5 mph  0.00"  76%  77%  59°F  55°F  29.94"
Wed 06:00 PM  71.7°F  66°F  calm  4 mph  8 mph  0.00"  64%  68%  59°F  54°F  29.93"
Wed 05:00 PM  74.2°F  69°F  1 mph SW  5 mph  7 mph  0.00"  56%  62%  57°F  55°F  29.93"

  1. Current weather data. No green row appears if the current weather data is also the high or low for the current day.
  2. High temperature for the current day.
  3. Low temperature for the current day.

The Fallbrook weather pages are a service of WeatherCurrents. Fallbrook, California is located in northern San Diego County, close to I15 and Camp Pendleton, and is home to ranches, avocado and citrus groves, and plant nurseries.
Copyright ©2019  WeatherCurrents. All rights reserved. - Submit questions and comments - Privacy Policy

This page automatically refreshes every 10 minutes.